sensor_id;sensor_type;location;lat;lon;timestamp;pressure;altitude;pressure_sealevel;temperature;humidity
56600;BME280;51832;48.152;11.530;2022-09-09T00:01:03;95295.50;;;20.54;54.28
56600;BME280;51832;48.152;11.530;2022-09-09T00:06:16;95293.94;;;20.06;55.99
56600;BME280;51832;48.152;11.530;2022-09-09T00:11:27;95281.63;;;20.52;54.32
56600;BME280;51832;48.152;11.530;2022-09-09T00:16:31;95277.44;;;20.65;53.72
56600;BME280;51832;48.152;11.530;2022-09-09T00:21:37;95275.78;;;20.69;53.79
56600;BME280;51832;48.152;11.530;2022-09-09T00:26:43;95274.84;;;20.79;53.26
56600;BME280;51832;48.152;11.530;2022-09-09T00:31:45;95269.41;;;21.03;52.36
56600;BME280;51832;48.152;11.530;2022-09-09T00:36:52;95277.75;;;20.64;53.65
56600;BME280;51832;48.152;11.530;2022-09-09T00:41:58;95290.66;;;20.94;53.04
56600;BME280;51832;48.152;11.530;2022-09-09T00:57:37;95286.63;;;20.97;53.24
56600;BME280;51832;48.152;11.530;2022-09-09T01:02:46;95275.91;;;20.40;55.40
56600;BME280;51832;48.152;11.530;2022-09-09T01:07:49;95273.91;;;20.27;55.75
56600;BME280;51832;48.152;11.530;2022-09-09T01:12:51;95283.31;;;19.77;57.41
56600;BME280;51832;48.152;11.530;2022-09-09T01:18:06;95279.44;;;20.12;56.42
56600;BME280;51832;48.152;11.530;2022-09-09T01:28:13;95278.81;;;19.96;57.02
56600;BME280;51832;48.152;11.530;2022-09-09T01:33:17;95274.03;;;20.17;56.47
56600;BME280;51832;48.152;11.530;2022-09-09T01:38:18;95273.84;;;19.90;57.55
56600;BME280;51832;48.152;11.530;2022-09-09T01:43:22;95281.00;;;19.94;57.66
56600;BME280;51832;48.152;11.530;2022-09-09T01:48:24;95279.81;;;20.05;57.24
56600;BME280;51832;48.152;11.530;2022-09-09T01:53:25;95282.28;;;19.97;57.86
56600;BME280;51832;48.152;11.530;2022-09-09T02:03:47;95272.25;;;19.88;57.94
56600;BME280;51832;48.152;11.530;2022-09-09T02:08:55;95280.25;;;20.12;57.51
56600;BME280;51832;48.152;11.530;2022-09-09T02:14:00;95263.13;;;20.13;57.02
56600;BME280;51832;48.152;11.530;2022-09-09T02:19:21;95257.53;;;19.91;57.95
56600;BME280;51832;48.152;11.530;2022-09-09T02:24:27;95263.03;;;20.00;57.96
56600;BME280;51832;48.152;11.530;2022-09-09T02:29:35;95265.66;;;19.81;58.82
56600;BME280;51832;48.152;11.530;2022-09-09T02:34:49;95257.06;;;19.84;58.70
56600;BME280;51832;48.152;11.530;2022-09-09T02:39:51;95253.81;;;19.87;59.11
56600;BME280;51832;48.152;11.530;2022-09-09T02:44:51;95257.94;;;19.79;59.56
56600;BME280;51832;48.152;11.530;2022-09-09T02:50:08;95251.28;;;19.77;59.78
56600;BME280;51832;48.152;11.530;2022-09-09T02:55:18;95256.03;;;19.56;60.97
56600;BME280;51832;48.152;11.530;2022-09-09T03:00:26;95259.31;;;19.43;61.40
56600;BME280;51832;48.152;11.530;2022-09-09T03:05:27;95253.63;;;19.26;62.37
56600;BME280;51832;48.152;11.530;2022-09-09T03:10:28;95251.56;;;19.46;61.45
56600;BME280;51832;48.152;11.530;2022-09-09T03:15:28;95247.81;;;19.52;61.23
56600;BME280;51832;48.152;11.530;2022-09-09T03:20:30;95252.47;;;19.66;60.90
56600;BME280;51832;48.152;11.530;2022-09-09T03:25:31;95249.97;;;19.45;61.85
56600;BME280;51832;48.152;11.530;2022-09-09T03:30:32;95246.47;;;19.21;62.62
56600;BME280;51832;48.152;11.530;2022-09-09T03:35:32;95247.81;;;19.18;62.72
56600;BME280;51832;48.152;11.530;2022-09-09T03:40:33;95241.13;;;19.21;62.93
56600;BME280;51832;48.152;11.530;2022-09-09T03:45:33;95248.59;;;18.90;64.27
56600;BME280;51832;48.152;11.530;2022-09-09T03:50:34;95247.13;;;19.08;63.56
56600;BME280;51832;48.152;11.530;2022-09-09T03:55:34;95241.47;;;18.80;65.02
56600;BME280;51832;48.152;11.530;2022-09-09T04:00:35;95241.63;;;18.94;64.24
56600;BME280;51832;48.152;11.530;2022-09-09T04:05:35;95241.94;;;19.22;63.68
56600;BME280;51832;48.152;11.530;2022-09-09T04:10:39;95240.75;;;19.04;64.25
56600;BME280;51832;48.152;11.530;2022-09-09T04:15:40;95237.69;;;19.15;63.59
56600;BME280;51832;48.152;11.530;2022-09-09T04:20:40;95226.69;;;18.93;64.33
56600;BME280;51832;48.152;11.530;2022-09-09T04:25:48;95232.22;;;19.31;63.01
56600;BME280;51832;48.152;11.530;2022-09-09T04:30:49;95220.91;;;19.44;61.73
56600;BME280;51832;48.152;11.530;2022-09-09T04:35:50;95211.38;;;19.38;61.74
56600;BME280;51832;48.152;11.530;2022-09-09T04:40:51;95209.53;;;19.33;61.67
56600;BME280;51832;48.152;11.530;2022-09-09T04:45:53;95222.72;;;18.91;63.49
56600;BME280;51832;48.152;11.530;2022-09-09T04:51:14;95214.50;;;19.16;62.83
56600;BME280;51832;48.152;11.530;2022-09-09T04:56:15;95215.75;;;18.95;63.50
56600;BME280;51832;48.152;11.530;2022-09-09T05:01:18;95206.19;;;19.46;61.61
56600;BME280;51832;48.152;11.530;2022-09-09T05:06:21;95216.50;;;19.29;61.75
56600;BME280;51832;48.152;11.530;2022-09-09T05:11:24;95214.91;;;19.28;61.83
56600;BME280;51832;48.152;11.530;2022-09-09T05:16:25;95225.22;;;18.77;63.25
56600;BME280;51832;48.152;11.530;2022-09-09T05:21:26;95226.91;;;18.68;64.17
56600;BME280;51832;48.152;11.530;2022-09-09T05:26:27;95230.66;;;18.62;64.69
56600;BME280;51832;48.152;11.530;2022-09-09T05:31:30;95234.63;;;18.69;64.84
56600;BME280;51832;48.152;11.530;2022-09-09T05:36:30;95238.03;;;18.75;64.83
56600;BME280;51832;48.152;11.530;2022-09-09T05:41:31;95238.97;;;18.94;63.82
56600;BME280;51832;48.152;11.530;2022-09-09T05:46:31;95235.69;;;19.02;63.73
56600;BME280;51832;48.152;11.530;2022-09-09T05:51:32;95234.66;;;19.27;62.75
56600;BME280;51832;48.152;11.530;2022-09-09T05:56:32;95236.19;;;19.09;63.05
56600;BME280;51832;48.152;11.530;2022-09-09T06:01:34;95233.38;;;19.25;62.72
56600;BME280;51832;48.152;11.530;2022-09-09T06:06:38;95253.19;;;19.42;61.98
56600;BME280;51832;48.152;11.530;2022-09-09T06:11:39;95259.00;;;18.87;63.15
56600;BME280;51832;48.152;11.530;2022-09-09T06:16:40;95249.22;;;19.11;62.79
56600;BME280;51832;48.152;11.530;2022-09-09T06:21:44;95249.47;;;18.80;63.63
56600;BME280;51832;48.152;11.530;2022-09-09T06:26:44;95247.84;;;18.85;63.53
56600;BME280;51832;48.152;11.530;2022-09-09T06:31:45;95250.13;;;18.62;63.90
56600;BME280;51832;48.152;11.530;2022-09-09T06:36:45;95240.69;;;18.75;64.10
56600;BME280;51832;48.152;11.530;2022-09-09T06:41:46;95250.69;;;18.93;63.20
56600;BME280;51832;48.152;11.530;2022-09-09T06:46:47;95250.22;;;19.20;62.19
56600;BME280;51832;48.152;11.530;2022-09-09T06:51:48;95257.47;;;19.43;61.48
56600;BME280;51832;48.152;11.530;2022-09-09T06:56:49;95261.72;;;19.44;61.29
56600;BME280;51832;48.152;11.530;2022-09-09T07:01:50;95270.09;;;19.33;62.13
56600;BME280;51832;48.152;11.530;2022-09-09T07:06:52;95268.56;;;18.93;63.70
56600;BME280;51832;48.152;11.530;2022-09-09T07:11:52;95281.59;;;19.62;61.65
56600;BME280;51832;48.152;11.530;2022-09-09T07:16:53;95330.94;;;18.97;64.46
56600;BME280;51832;48.152;11.530;2022-09-09T07:21:53;95304.66;;;19.14;64.95
56600;BME280;51832;48.152;11.530;2022-09-09T07:26:53;95326.78;;;19.14;64.56
56600;BME280;51832;48.152;11.530;2022-09-09T07:31:54;95322.25;;;19.54;63.37
56600;BME280;51832;48.152;11.530;2022-09-09T07:36:56;95316.41;;;19.47;63.62
56600;BME280;51832;48.152;11.530;2022-09-09T07:41:57;95324.72;;;19.98;62.11
56600;BME280;51832;48.152;11.530;2022-09-09T07:46:58;95327.88;;;20.05;62.20
56600;BME280;51832;48.152;11.530;2022-09-09T07:51:59;95336.97;;;20.28;61.08
56600;BME280;51832;48.152;11.530;2022-09-09T07:56:59;95341.47;;;20.33;61.11
56600;BME280;51832;48.152;11.530;2022-09-09T08:02:00;95339.75;;;20.18;61.43
56600;BME280;51832;48.152;11.530;2022-09-09T08:07:01;95325.72;;;20.31;61.21
56600;BME280;51832;48.152;11.530;2022-09-09T08:12:03;95334.81;;;20.54;60.17
56600;BME280;51832;48.152;11.530;2022-09-09T08:17:03;95359.88;;;20.58;60.65
56600;BME280;51832;48.152;11.530;2022-09-09T08:22:04;95361.47;;;20.35;61.27
56600;BME280;51832;48.152;11.530;2022-09-09T08:27:04;95360.81;;;20.48;60.84
56600;BME280;51832;48.152;11.530;2022-09-09T08:32:05;95354.63;;;20.72;60.10
56600;BME280;51832;48.152;11.530;2022-09-09T08:37:05;95370.03;;;20.99;60.31
56600;BME280;51832;48.152;11.530;2022-09-09T08:58:09;95372.59;;;20.90;64.80
56600;BME280;51832;48.152;11.530;2022-09-09T09:03:27;95369.72;;;21.24;64.23
56600;BME280;51832;48.152;11.530;2022-09-09T09:08:43;95370.78;;;21.42;63.59
56600;BME280;51832;48.152;11.530;2022-09-09T09:14:03;95363.66;;;21.51;62.63
56600;BME280;51832;48.152;11.530;2022-09-09T09:19:05;95360.91;;;21.56;61.80
56600;BME280;51832;48.152;11.530;2022-09-09T09:24:22;95358.47;;;21.73;59.78
56600;BME280;51832;48.152;11.530;2022-09-09T09:29:24;95372.06;;;21.77;57.67
56600;BME280;51832;48.152;11.530;2022-09-09T09:34:26;95376.66;;;21.44;57.04
56600;BME280;51832;48.152;11.530;2022-09-09T09:39:29;95373.91;;;21.30;55.56
56600;BME280;51832;48.152;11.530;2022-09-09T09:44:32;95376.94;;;21.42;53.84
56600;BME280;51832;48.152;11.530;2022-09-09T09:49:32;95373.25;;;21.38;55.37
56600;BME280;51832;48.152;11.530;2022-09-09T09:54:37;95374.09;;;21.34;56.00
56600;BME280;51832;48.152;11.530;2022-09-09T09:59:38;95373.38;;;21.09;57.19
56600;BME280;51832;48.152;11.530;2022-09-09T10:04:41;95364.66;;;20.61;59.96
56600;BME280;51832;48.152;11.530;2022-09-09T10:09:42;95376.63;;;21.06;58.68
56600;BME280;51832;48.152;11.530;2022-09-09T10:31:18;95377.75;;;20.63;60.83
56600;BME280;51832;48.152;11.530;2022-09-09T10:36:24;95375.00;;;20.20;62.77
56600;BME280;51832;48.152;11.530;2022-09-09T10:41:51;95373.47;;;20.62;60.95
56600;BME280;51832;48.152;11.530;2022-09-09T10:47:08;95370.25;;;20.41;61.14
56600;BME280;51832;48.152;11.530;2022-09-09T10:52:34;95370.97;;;20.70;59.57
56600;BME280;51832;48.152;11.530;2022-09-09T10:57:46;95372.56;;;21.09;58.20
56600;BME280;51832;48.152;11.530;2022-09-09T11:02:58;95375.47;;;20.51;58.96
56600;BME280;51832;48.152;11.530;2022-09-09T11:08:04;95368.91;;;21.23;56.93
56600;BME280;51832;48.152;11.530;2022-09-09T11:13:17;95365.44;;;21.88;54.47
56600;BME280;51832;48.152;11.530;2022-09-09T11:18:22;95373.28;;;22.17;51.51
56600;BME280;51832;48.152;11.530;2022-09-09T11:23:44;95360.75;;;21.66;53.54
56600;BME280;51832;48.152;11.530;2022-09-09T11:40:21;95356.59;;;22.61;51.43
56600;BME280;51832;48.152;11.530;2022-09-09T11:45:25;95362.69;;;22.39;51.63
56600;BME280;51832;48.152;11.530;2022-09-09T11:50:36;95362.94;;;22.10;53.05
56600;BME280;51832;48.152;11.530;2022-09-09T11:55:37;95356.31;;;21.89;53.81
56600;BME280;51832;48.152;11.530;2022-09-09T12:05:44;95376.75;;;21.71;53.20
56600;BME280;51832;48.152;11.530;2022-09-09T12:10:54;95363.06;;;21.73;53.14
56600;BME280;51832;48.152;11.530;2022-09-09T12:15:58;95359.72;;;21.94;52.81
56600;BME280;51832;48.152;11.530;2022-09-09T12:21:33;95359.50;;;22.51;51.30
56600;BME280;51832;48.152;11.530;2022-09-09T12:26:47;95350.69;;;23.36;49.47
56600;BME280;51832;48.152;11.530;2022-09-09T12:32:02;95348.47;;;23.16;49.85
56600;BME280;51832;48.152;11.530;2022-09-09T12:37:20;95337.25;;;22.78;50.27
56600;BME280;51832;48.152;11.530;2022-09-09T12:42:25;95343.88;;;22.94;49.59
56600;BME280;51832;48.152;11.530;2022-09-09T12:48:20;95337.16;;;23.05;49.41
56600;BME280;51832;48.152;11.530;2022-09-09T12:53:02;95330.25;;;22.90;49.98
56600;BME280;51832;48.152;11.530;2022-09-09T12:58:05;95326.13;;;23.29;49.45
56600;BME280;51832;48.152;11.530;2022-09-09T13:03:20;95315.34;;;23.20;49.96
56600;BME280;51832;48.152;11.530;2022-09-09T13:08:23;95318.19;;;22.52;51.65
56600;BME280;51832;48.152;11.530;2022-09-09T13:13:54;95321.41;;;21.94;53.47
56600;BME280;51832;48.152;11.530;2022-09-09T13:18:56;95306.78;;;22.19;53.67
56600;BME280;51832;48.152;11.530;2022-09-09T13:23:56;95305.88;;;22.10;53.43
56600;BME280;51832;48.152;11.530;2022-09-09T13:29:14;95298.69;;;21.91;54.32
56600;BME280;51832;48.152;11.530;2022-09-09T13:34:34;95288.78;;;22.47;52.17
56600;BME280;51832;48.152;11.530;2022-09-09T13:39:38;95287.50;;;22.03;53.04
56600;BME280;51832;48.152;11.530;2022-09-09T13:44:39;95273.19;;;21.94;53.91
56600;BME280;51832;48.152;11.530;2022-09-09T13:49:41;95269.13;;;21.96;53.44
56600;BME280;51832;48.152;11.530;2022-09-09T13:54:42;95267.19;;;21.42;54.37
56600;BME280;51832;48.152;11.530;2022-09-09T13:59:44;95270.06;;;21.59;53.77
56600;BME280;51832;48.152;11.530;2022-09-09T14:04:45;95285.09;;;21.88;53.47
56600;BME280;51832;48.152;11.530;2022-09-09T14:09:45;95282.13;;;21.30;54.53
56600;BME280;51832;48.152;11.530;2022-09-09T14:14:49;95285.66;;;21.25;55.23
56600;BME280;51832;48.152;11.530;2022-09-09T14:19:50;95284.16;;;21.51;54.70
56600;BME280;51832;48.152;11.530;2022-09-09T14:24:51;95293.13;;;21.28;55.88
56600;BME280;51832;48.152;11.530;2022-09-09T14:29:52;95287.47;;;20.92;56.59
56600;BME280;51832;48.152;11.530;2022-09-09T14:34:52;95297.25;;;21.99;53.07
56600;BME280;51832;48.152;11.530;2022-09-09T14:39:53;95299.88;;;21.39;54.69
56600;BME280;51832;48.152;11.530;2022-09-09T14:44:54;95312.84;;;21.32;54.57
56600;BME280;51832;48.152;11.530;2022-09-09T14:49:54;95302.50;;;21.44;53.60
56600;BME280;51832;48.152;11.530;2022-09-09T14:54:55;95306.56;;;21.55;53.56
56600;BME280;51832;48.152;11.530;2022-09-09T14:59:55;95307.53;;;20.76;55.56
56600;BME280;51832;48.152;11.530;2022-09-09T15:04:56;95308.16;;;21.56;53.54
56600;BME280;51832;48.152;11.530;2022-09-09T15:09:58;95292.19;;;21.51;53.58
56600;BME280;51832;48.152;11.530;2022-09-09T15:14:58;95309.06;;;22.12;51.32
56600;BME280;51832;48.152;11.530;2022-09-09T15:19:58;95299.41;;;22.38;49.54
56600;BME280;51832;48.152;11.530;2022-09-09T15:24:59;95300.28;;;21.92;50.90
56600;BME280;51832;48.152;11.530;2022-09-09T15:29:59;95293.00;;;22.12;49.77
56600;BME280;51832;48.152;11.530;2022-09-09T15:35:00;95291.41;;;21.64;50.50
56600;BME280;51832;48.152;11.530;2022-09-09T15:40:02;95280.97;;;22.73;48.25
56600;BME280;51832;48.152;11.530;2022-09-09T15:45:03;95279.00;;;26.31;39.45
56600;BME280;51832;48.152;11.530;2022-09-09T15:50:05;95266.75;;;29.57;32.46
56600;BME280;51832;48.152;11.530;2022-09-09T15:55:06;95281.25;;;26.12;38.31
56600;BME280;51832;48.152;11.530;2022-09-09T16:00:07;95275.41;;;25.46;39.66
56600;BME280;51832;48.152;11.530;2022-09-09T16:05:08;95259.91;;;24.08;42.51
56600;BME280;51832;48.152;11.530;2022-09-09T16:10:09;95265.88;;;23.35;44.60
56600;BME280;51832;48.152;11.530;2022-09-09T16:15:11;95274.91;;;24.32;41.97
56600;BME280;51832;48.152;11.530;2022-09-09T16:20:12;95265.25;;;27.16;35.74
56600;BME280;51832;48.152;11.530;2022-09-09T16:25:14;95257.97;;;28.43;32.95
56600;BME280;51832;48.152;11.530;2022-09-09T16:30:15;95255.50;;;29.86;29.98
56600;BME280;51832;48.152;11.530;2022-09-09T16:35:15;95246.09;;;29.52;29.76
56600;BME280;51832;48.152;11.530;2022-09-09T16:40:16;95244.31;;;29.88;29.58
56600;BME280;51832;48.152;11.530;2022-09-09T16:45:17;95242.00;;;30.53;27.69
56600;BME280;51832;48.152;11.530;2022-09-09T16:50:18;95246.34;;;29.19;30.11
56600;BME280;51832;48.152;11.530;2022-09-09T16:55:19;95244.81;;;28.42;31.45
56600;BME280;51832;48.152;11.530;2022-09-09T17:00:22;95244.78;;;28.05;32.05
56600;BME280;51832;48.152;11.530;2022-09-09T17:05:23;95248.81;;;27.42;33.48
56600;BME280;51832;48.152;11.530;2022-09-09T17:10:25;95255.34;;;26.37;35.75
56600;BME280;51832;48.152;11.530;2022-09-09T17:15:25;95257.25;;;25.08;38.87
56600;BME280;51832;48.152;11.530;2022-09-09T17:20:26;95258.44;;;23.94;41.85
56600;BME280;51832;48.152;11.530;2022-09-09T17:25:26;95263.78;;;23.32;44.26
56600;BME280;51832;48.152;11.530;2022-09-09T17:30:26;95258.25;;;23.06;44.93
56600;BME280;51832;48.152;11.530;2022-09-09T17:35:27;95254.97;;;22.23;47.68
56600;BME280;51832;48.152;11.530;2022-09-09T17:40:28;95258.00;;;22.30;47.71
56600;BME280;51832;48.152;11.530;2022-09-09T17:45:28;95266.56;;;22.19;48.81
56600;BME280;51832;48.152;11.530;2022-09-09T17:50:30;95286.41;;;22.31;48.66
56600;BME280;51832;48.152;11.530;2022-09-09T17:55:33;95281.28;;;22.08;49.65
56600;BME280;51832;48.152;11.530;2022-09-09T18:00:33;95281.88;;;21.45;52.06
56600;BME280;51832;48.152;11.530;2022-09-09T18:05:34;95288.47;;;21.34;52.75
56600;BME280;51832;48.152;11.530;2022-09-09T18:10:34;95289.25;;;21.67;52.07
56600;BME280;51832;48.152;11.530;2022-09-09T18:15:38;95282.34;;;21.14;53.64
56600;BME280;51832;48.152;11.530;2022-09-09T18:20:40;95285.84;;;20.77;54.46
56600;BME280;51832;48.152;11.530;2022-09-09T18:25:40;95285.16;;;20.24;55.86
56600;BME280;51832;48.152;11.530;2022-09-09T18:30:41;95293.56;;;20.60;54.31
56600;BME280;51832;48.152;11.530;2022-09-09T18:35:41;95303.44;;;20.41;54.20
56600;BME280;51832;48.152;11.530;2022-09-09T18:40:42;95319.34;;;20.70;52.85
56600;BME280;51832;48.152;11.530;2022-09-09T18:45:43;95337.56;;;20.68;52.98
56600;BME280;51832;48.152;11.530;2022-09-09T18:50:43;95332.72;;;20.70;53.08
56600;BME280;51832;48.152;11.530;2022-09-09T18:55:44;95320.19;;;20.89;52.58
56600;BME280;51832;48.152;11.530;2022-09-09T19:00:45;95318.94;;;21.00;52.08
56600;BME280;51832;48.152;11.530;2022-09-09T19:05:45;95326.06;;;20.01;54.63
56600;BME280;51832;48.152;11.530;2022-09-09T19:10:46;95341.50;;;20.51;53.50
56600;BME280;51832;48.152;11.530;2022-09-09T19:15:47;95419.88;;;19.60;57.41
56600;BME280;51832;48.152;11.530;2022-09-09T19:20:47;95406.94;;;19.38;58.00
56600;BME280;51832;48.152;11.530;2022-09-09T19:25:48;95405.81;;;19.49;57.50
56600;BME280;51832;48.152;11.530;2022-09-09T19:30:48;95408.00;;;19.76;55.66
56600;BME280;51832;48.152;11.530;2022-09-09T19:36:03;95415.91;;;19.86;53.09
56600;BME280;51832;48.152;11.530;2022-09-09T19:41:06;95417.84;;;19.42;54.13
56600;BME280;51832;48.152;11.530;2022-09-09T19:46:09;95415.13;;;19.47;54.45
56600;BME280;51832;48.152;11.530;2022-09-09T19:51:11;95430.44;;;19.31;53.18
56600;BME280;51832;48.152;11.530;2022-09-09T19:56:12;95436.22;;;19.48;53.41
56600;BME280;51832;48.152;11.530;2022-09-09T20:01:26;95430.97;;;19.72;52.30
56600;BME280;51832;48.152;11.530;2022-09-09T20:06:34;95426.19;;;19.69;52.44
56600;BME280;51832;48.152;11.530;2022-09-09T20:11:34;95428.97;;;19.93;51.54
56600;BME280;51832;48.152;11.530;2022-09-09T20:16:35;95433.91;;;19.76;51.92
56600;BME280;51832;48.152;11.530;2022-09-09T20:21:38;95425.22;;;19.94;50.98
56600;BME280;51832;48.152;11.530;2022-09-09T20:26:38;95428.38;;;19.96;51.17
56600;BME280;51832;48.152;11.530;2022-09-09T20:31:40;95427.41;;;19.87;51.70
56600;BME280;51832;48.152;11.530;2022-09-09T20:36:42;95425.13;;;20.04;51.93
56600;BME280;51832;48.152;11.530;2022-09-09T20:41:43;95422.97;;;20.30;51.58
56600;BME280;51832;48.152;11.530;2022-09-09T20:46:46;95425.41;;;20.27;51.12
56600;BME280;51832;48.152;11.530;2022-09-09T20:51:48;95422.88;;;20.11;52.35
56600;BME280;51832;48.152;11.530;2022-09-09T20:56:50;95427.16;;;20.12;51.74
56600;BME280;51832;48.152;11.530;2022-09-09T21:01:51;95431.00;;;20.01;52.82
56600;BME280;51832;48.152;11.530;2022-09-09T21:06:52;95431.66;;;19.88;53.49
56600;BME280;51832;48.152;11.530;2022-09-09T21:11:52;95437.53;;;20.19;52.42
56600;BME280;51832;48.152;11.530;2022-09-09T21:16:53;95439.94;;;19.86;54.63
56600;BME280;51832;48.152;11.530;2022-09-09T21:21:53;95461.31;;;19.52;56.15
56600;BME280;51832;48.152;11.530;2022-09-09T21:26:54;95476.34;;;19.28;56.90
56600;BME280;51832;48.152;11.530;2022-09-09T21:31:55;95494.22;;;18.63;58.42
56600;BME280;51832;48.152;11.530;2022-09-09T21:36:56;95499.06;;;18.21;59.98
56600;BME280;51832;48.152;11.530;2022-09-09T21:41:57;95484.19;;;17.99;62.81
56600;BME280;51832;48.152;11.530;2022-09-09T21:46:58;95484.63;;;18.47;62.45
56600;BME280;51832;48.152;11.530;2022-09-09T21:51:58;95483.34;;;18.39;63.37
56600;BME280;51832;48.152;11.530;2022-09-09T21:56:59;95489.19;;;18.36;63.83
56600;BME280;51832;48.152;11.530;2022-09-09T22:01:59;95492.16;;;18.15;65.17
56600;BME280;51832;48.152;11.530;2022-09-09T22:07:00;95491.34;;;17.94;66.09
56600;BME280;51832;48.152;11.530;2022-09-09T22:12:00;95488.97;;;17.97;67.05
56600;BME280;51832;48.152;11.530;2022-09-09T22:17:01;95483.63;;;18.13;66.47
56600;BME280;51832;48.152;11.530;2022-09-09T22:22:02;95474.03;;;18.06;66.13
56600;BME280;51832;48.152;11.530;2022-09-09T22:27:03;95483.13;;;17.85;66.35
56600;BME280;51832;48.152;11.530;2022-09-09T22:32:04;95482.22;;;17.39;67.12
56600;BME280;51832;48.152;11.530;2022-09-09T22:37:06;95484.38;;;17.52;66.97
56600;BME280;51832;48.152;11.530;2022-09-09T22:42:07;95475.84;;;17.30;67.58
56600;BME280;51832;48.152;11.530;2022-09-09T22:47:07;95481.31;;;16.98;67.63
56600;BME280;51832;48.152;11.530;2022-09-09T22:52:07;95482.06;;;16.83;68.33
56600;BME280;51832;48.152;11.530;2022-09-09T22:57:09;95479.66;;;16.82;67.64
56600;BME280;51832;48.152;11.530;2022-09-09T23:02:10;95486.50;;;16.67;68.41
56600;BME280;51832;48.152;11.530;2022-09-09T23:07:12;95490.50;;;16.70;68.69
56600;BME280;51832;48.152;11.530;2022-09-09T23:12:12;95481.41;;;16.61;69.29
56600;BME280;51832;48.152;11.530;2022-09-09T23:17:12;95478.03;;;16.70;69.10
56600;BME280;51832;48.152;11.530;2022-09-09T23:22:17;95472.34;;;16.52;69.79
56600;BME280;51832;48.152;11.530;2022-09-09T23:27:19;95465.97;;;16.58;69.37
56600;BME280;51832;48.152;11.530;2022-09-09T23:32:20;95464.28;;;16.37;69.27
56600;BME280;51832;48.152;11.530;2022-09-09T23:37:21;95465.47;;;16.14;70.46
56600;BME280;51832;48.152;11.530;2022-09-09T23:42:21;95474.97;;;16.05;71.06
56600;BME280;51832;48.152;11.530;2022-09-09T23:47:22;95458.09;;;16.21;70.22
56600;BME280;51832;48.152;11.530;2022-09-09T23:52:24;95466.84;;;16.21;69.24
56600;BME280;51832;48.152;11.530;2022-09-09T23:57:25;95468.47;;;16.27;68.43
